Mackinaw City, MI

8:08 PM EST on December 19, 2014 (GMT -0500)
Mackinac Island | Change Station
CLOSE
Current Station
Airport
Location: Mackinac Island,
Elevation: 741 ft
Nearby Weather Stations

Elev 741 ft 45.87 °N, 84.64 °W | Updated 12 minutes ago

Clear
Clear
17 °F
Feels Like 17 °F
N
0
Wind Variable Wind from North

Today
High -- | Low -- °F
--% Chance of Precip.
Yesterday
High -- | Low -- °F
Precip. -- in
8:16 AM 4:56 PM
Waning Crescent, 5% visible
Pressure 30.29 in
Visibility 10.0 miles
Clouds Clear
Dew Point 15 °F
Humidity 94%
Rainfall 0.00 in
Snow Depth Not available.
UV 0 out of 12
Pollen .10 out of 12
Air Quality Not available.
Flu Activity Not available.
METAR KMCD 200056Z AUTO 00000KT 10SM CLR M08/M09 A3029 RMK AO2 T10841092

More Conditions Fewer Conditions

Pressure 30.29 in
Visibility 10.0 miles
Clouds Clear
Dew Point 15 °F
Humidity 94%
Rainfall 0.00 in
Snow Depth Not available.
UV 0 out of 12
Pollen .10 out of 12
Air Quality Not available.
Flu Activity Not available.
METAR KMCD 200056Z AUTO 00000KT 10SM CLR M08/M09 A3029 RMK AO2 T10841092

More Conditions Fewer Conditions

Nowcast | as of 8:00 PM EST on December 19, 2014

At 9 PM...clear. Temperature 14. Light winds. At 11 PM...clear. Temperature 11. Light winds. At 1 am...partly cloudy. Temperature 10 above. Light winds. At 3 am...cloudy. Temperature 10 above. Light winds.

×

10-Day Weather Forecast

Almanac

Astronomy

Dec. 19, 2014 Rise Set
Actual Time
Civil Twilight
Nautical Twilight
Astronomical Twilight
Moon
Length of Visible Light
Length of Day
Tomorrow will be .
, % of the Moon is Illuminated

Today's Extremes

State Highs State Lows

Community

WunderPhotos

Upload Photos

1,779,095 photos uploaded!

WunderBlogs® & News

Nearby

Air Quality

  Air Quality AQ Index Pollutant
Not available.

Snow Depth

Station Depth Elevation

Earthquake Activity

City Distance Mag. Time & Date
Minimum magnitude displayed is 2.5.

Coastal Water Temperatures

Place Temperature

Nearby Weather Stations